createdAt,value
2017-09-11T00:04:47.122Z,1004.001
2017-09-11T00:07:41.713Z,1003.996
2017-09-11T00:10:36.196Z,1003.963
2017-09-11T00:13:30.767Z,1003.951
2017-09-11T00:16:25.288Z,1003.893
2017-09-11T00:19:19.715Z,1003.874
2017-09-11T00:22:14.168Z,1003.826
2017-09-11T00:25:08.628Z,1003.807
2017-09-11T00:28:03.154Z,1003.808
2017-09-11T00:36:46.626Z,1003.710
2017-09-11T00:39:41.170Z,1003.743
2017-09-11T00:42:35.611Z,1003.688
2017-09-11T00:45:30.093Z,1003.685
2017-09-11T00:48:24.609Z,1003.652
2017-09-11T00:51:19.418Z,1003.646
2017-09-11T00:54:13.788Z,1003.618
2017-09-11T00:57:08.213Z,1003.626
2017-09-11T01:00:02.808Z,1003.581
2017-09-11T01:02:57.210Z,1003.532
2017-09-11T01:05:51.735Z,1003.518
2017-09-11T01:08:46.306Z,1003.522
2017-09-11T01:11:40.756Z,1003.511
2017-09-11T01:14:35.275Z,1003.500
2017-09-11T01:17:29.815Z,1003.519
2017-09-11T01:20:24.167Z,1003.548
2017-09-11T01:23:18.740Z,1003.543
2017-09-11T01:26:13.208Z,1003.479
2017-09-11T01:29:07.550Z,1003.484
2017-09-11T01:32:02.056Z,1003.410
2017-09-11T01:34:56.499Z,1003.389
2017-09-11T01:37:50.953Z,1003.413
2017-09-11T01:40:45.348Z,1003.376
2017-09-11T01:43:39.852Z,1003.286
2017-09-11T01:46:34.350Z,1003.298
2017-09-11T01:49:28.915Z,1003.256
2017-09-11T01:52:23.330Z,1003.237
2017-09-11T01:55:17.780Z,1003.220
2017-09-11T02:01:06.733Z,1003.237
2017-09-11T02:04:01.117Z,1003.191
2017-09-11T02:06:55.622Z,1003.224
2017-09-11T02:09:50.145Z,1003.200
2017-09-11T02:12:44.671Z,1003.174
2017-09-11T02:15:39.118Z,1003.171
2017-09-11T02:18:33.562Z,1003.116
2017-09-11T02:21:28.002Z,1003.067
2017-09-11T02:24:22.660Z,1003.044
2017-09-11T02:27:16.930Z,1003.023
2017-09-11T02:30:11.394Z,1002.972
2017-09-11T02:33:05.913Z,1002.938
2017-09-11T02:36:00.761Z,1002.900
2017-09-11T02:38:55.293Z,1002.830
2017-09-11T02:41:49.805Z,1002.833
2017-09-11T02:44:44.292Z,1002.870
2017-09-11T02:47:38.845Z,1002.834
2017-09-11T02:50:33.285Z,1002.828
2017-09-11T02:53:27.743Z,1002.843
2017-09-11T02:56:22.296Z,1002.856
2017-09-11T02:59:16.763Z,1002.819
2017-09-11T03:06:19.816Z,1002.797
2017-09-11T03:09:03.143Z,1002.734
2017-09-11T03:11:56.802Z,1002.712
2017-09-11T03:14:51.036Z,1002.726
2017-09-11T03:17:45.447Z,1002.752
2017-09-11T03:20:39.838Z,1002.747
2017-09-11T03:23:34.258Z,1002.636
2017-09-11T03:26:28.717Z,1002.604
2017-09-11T03:29:23.226Z,1002.523
2017-09-11T03:40:50.978Z,1002.374
2017-09-11T03:43:44.563Z,1002.387
2017-09-11T03:46:38.675Z,1002.317
2017-09-11T03:52:27.382Z,1002.246
2017-09-11T03:55:21.765Z,1002.170
2017-09-11T04:05:53.344Z,1002.027
2017-09-11T04:08:47.047Z,1002.009
2017-09-11T04:14:35.601Z,1002.016
2017-09-11T04:17:30.006Z,1001.923
2017-09-11T04:20:24.482Z,1001.908
2017-09-11T04:23:41.557Z,1001.875
2017-09-11T04:31:11.407Z,1001.854
2017-09-11T04:33:54.663Z,1001.881
2017-09-11T04:36:48.326Z,1001.865
2017-09-11T04:39:42.457Z,1001.841
2017-09-11T04:42:36.834Z,1001.832
2017-09-11T04:45:31.451Z,1001.793
2017-09-11T04:48:25.968Z,1001.782
2017-09-11T04:56:48.183Z,1001.768
2017-09-11T04:59:31.340Z,1001.758
2017-09-11T05:02:24.969Z,1001.680
2017-09-11T05:05:19.129Z,1001.707
2017-09-11T05:08:13.367Z,1001.708
2017-09-11T05:11:07.817Z,1001.621
2017-09-11T05:16:56.739Z,1001.589
2017-09-11T05:20:13.734Z,1001.634
2017-09-11T05:27:43.660Z,1001.562
2017-09-11T05:30:26.920Z,1001.529
2017-09-11T05:33:20.554Z,1001.567
2017-09-11T05:36:14.718Z,1001.563
2017-09-11T05:39:09.083Z,1001.649
2017-09-11T05:42:03.453Z,1001.588
2017-09-11T05:44:57.960Z,1001.539
2017-09-11T05:47:52.320Z,1001.563
2017-09-11T05:55:29.234Z,1001.518
2017-09-11T05:58:12.541Z,1001.513
2017-09-11T06:01:06.285Z,1001.427
2017-09-11T06:04:00.569Z,1001.419
2017-09-11T06:06:54.986Z,1001.384
2017-09-11T06:09:49.398Z,1001.366
2017-09-11T06:12:43.914Z,1001.322
2017-09-11T06:15:38.506Z,1001.294
2017-09-11T06:18:33.020Z,1001.291
2017-09-11T06:21:27.631Z,1001.231
2017-09-11T06:24:22.163Z,1001.205
2017-09-11T06:27:16.798Z,1001.193
2017-09-11T06:33:05.964Z,1001.108
2017-09-11T06:36:00.398Z,1001.102
2017-09-11T06:40:02.844Z,1001.023
2017-09-11T06:42:47.709Z,1000.944
2017-09-11T06:45:42.019Z,1000.975
2017-09-11T06:48:36.677Z,1000.999
2017-09-11T06:51:31.162Z,1000.962
2017-09-11T06:54:25.893Z,1001.029
2017-09-11T07:00:15.225Z,1001.048
2017-09-11T07:03:10.161Z,1001.022
2017-09-11T07:06:05.383Z,1001.062
2017-09-11T07:09:00.169Z,1001.016
2017-09-11T07:11:54.895Z,1001.049
2017-09-11T07:14:49.688Z,1001.058
2017-09-11T07:17:44.362Z,1001.110
2017-09-11T07:20:39.125Z,1001.100
2017-09-11T07:23:33.713Z,1001.172
2017-09-11T07:26:28.397Z,1001.192
2017-09-11T07:32:17.930Z,1001.215
2017-09-11T07:35:12.703Z,1001.146
2017-09-11T07:38:07.774Z,1001.113
2017-09-11T07:41:02.483Z,1001.106
2017-09-11T07:43:57.237Z,1001.136
2017-09-11T07:46:51.838Z,1001.163
2017-09-11T07:49:46.830Z,1001.089
2017-09-11T07:52:41.538Z,1000.947
2017-09-11T07:55:36.170Z,1000.967
2017-09-11T07:58:30.820Z,1000.956
2017-09-11T08:01:25.635Z,1001.044
2017-09-11T08:04:20.443Z,1001.082
2017-09-11T08:07:15.006Z,1001.084
2017-09-11T08:10:09.783Z,1001.099
2017-09-11T08:13:04.465Z,1001.054
2017-09-11T08:15:59.325Z,1001.023
2017-09-11T08:18:54.119Z,1001.035
2017-09-11T08:21:48.758Z,1000.960
2017-09-11T08:24:43.427Z,1000.956
2017-09-11T08:27:38.140Z,1001.012
2017-09-11T08:30:32.732Z,1000.915
2017-09-11T08:33:27.473Z,1000.907
2017-09-11T08:36:22.191Z,1000.897
2017-09-11T08:39:16.895Z,1000.754
2017-09-11T08:42:11.540Z,1000.705
2017-09-11T08:45:06.149Z,1000.624
2017-09-11T08:48:00.969Z,1000.560
2017-09-11T08:50:55.757Z,1000.501
2017-09-11T08:53:50.505Z,1000.433
2017-09-11T08:56:45.263Z,1000.478
2017-09-11T08:59:40.005Z,1000.447
2017-09-11T09:02:34.651Z,1000.496
2017-09-11T09:05:29.436Z,1000.577
2017-09-11T09:08:24.294Z,1000.435
2017-09-11T09:11:19.098Z,1000.327
2017-09-11T09:14:13.754Z,1000.320
2017-09-11T09:17:08.516Z,1000.337
2017-09-11T09:22:58.133Z,1000.303
2017-09-11T09:25:53.450Z,1000.214
2017-09-11T09:28:48.363Z,1000.194
2017-09-11T09:31:43.309Z,1000.181
2017-09-11T09:34:38.358Z,1000.150
2017-09-11T09:37:33.361Z,1000.152
2017-09-11T09:43:23.439Z,1000.105
2017-09-11T09:46:18.595Z,1000.016
2017-09-11T09:49:13.764Z,1000.025
2017-09-11T09:52:09.150Z,999.958
2017-09-11T09:55:04.577Z,999.972
2017-09-11T09:58:00.014Z,999.875
2017-09-11T10:00:55.217Z,999.768
2017-09-11T10:03:50.667Z,999.798
2017-09-11T10:06:46.029Z,999.799
2017-09-11T10:09:42.020Z,999.853
2017-09-11T10:12:38.003Z,999.807
2017-09-11T10:15:34.050Z,999.729
2017-09-11T10:18:29.948Z,999.702
2017-09-11T10:21:25.873Z,999.684
2017-09-11T10:24:21.762Z,999.636
2017-09-11T10:27:17.328Z,999.663
2017-09-11T10:30:12.951Z,999.766
2017-09-11T10:33:08.590Z,999.797
2017-09-11T10:36:04.253Z,999.808
2017-09-11T10:38:59.829Z,999.829
2017-09-11T10:41:55.387Z,999.807
2017-09-11T10:44:50.996Z,999.865
2017-09-11T10:47:46.551Z,999.819
2017-09-11T10:50:42.147Z,999.895
2017-09-11T10:53:37.633Z,999.898
2017-09-11T10:56:33.312Z,999.880
2017-09-11T10:59:28.870Z,999.872
2017-09-11T11:02:24.468Z,999.855
2017-09-11T11:05:19.883Z,999.882
2017-09-11T11:08:15.362Z,999.874
2017-09-11T11:11:10.926Z,999.828
2017-09-11T11:14:06.417Z,999.801
2017-09-11T11:17:01.997Z,999.760
2017-09-11T11:19:57.572Z,999.849
2017-09-11T11:22:53.331Z,999.873
2017-09-11T11:25:48.890Z,999.842
2017-09-11T11:28:44.403Z,999.827
2017-09-11T11:31:39.864Z,999.859
2017-09-11T11:34:35.420Z,999.903
2017-09-11T11:37:30.912Z,999.904
2017-09-11T11:43:22.027Z,999.951
2017-09-11T11:46:17.617Z,999.957
2017-09-11T11:49:13.081Z,1000.095
2017-09-11T11:52:08.637Z,1000.112
2017-09-11T11:55:04.076Z,1000.093
2017-09-11T11:57:59.638Z,1000.130
2017-09-11T12:00:55.048Z,999.962
2017-09-11T12:03:50.546Z,999.988
2017-09-11T12:06:45.995Z,999.946
2017-09-11T12:09:41.421Z,999.986
2017-09-11T12:12:36.935Z,999.979
2017-09-11T12:15:32.376Z,999.971
2017-09-11T12:18:28.120Z,999.978
2017-09-11T12:21:23.614Z,999.898
2017-09-11T12:24:19.067Z,999.880
2017-09-11T12:27:14.672Z,999.848
2017-09-11T12:30:09.986Z,999.867
2017-09-11T12:33:05.414Z,999.844
2017-09-11T12:36:00.994Z,999.875
2017-09-11T12:38:56.443Z,999.865
2017-09-11T12:41:51.840Z,999.832
2017-09-11T12:44:47.296Z,999.785
2017-09-11T12:47:42.847Z,999.845
2017-09-11T12:50:38.131Z,999.847
2017-09-11T12:56:29.117Z,999.822
2017-09-11T12:59:24.554Z,999.892
2017-09-11T13:02:20.027Z,999.935
2017-09-11T13:05:15.443Z,999.974
2017-09-11T13:08:10.918Z,1000.061
2017-09-11T13:11:06.243Z,1000.116
2017-09-11T13:14:01.661Z,1000.087
2017-09-11T13:16:57.049Z,1000.132
2017-09-11T13:19:52.562Z,1000.097
2017-09-11T13:22:47.913Z,1000.127
2017-09-11T13:25:43.352Z,1000.197
2017-09-11T13:28:38.805Z,1000.099
2017-09-11T13:31:34.208Z,1000.062
2017-09-11T13:34:29.624Z,1000.071
2017-09-11T13:37:24.976Z,1000.031
2017-09-11T13:40:20.292Z,999.988
2017-09-11T13:43:15.629Z,999.963
2017-09-11T13:46:10.976Z,999.990
2017-09-11T13:49:06.693Z,999.877
2017-09-11T13:52:02.171Z,999.803
2017-09-11T13:54:57.483Z,999.786
2017-09-11T13:57:52.981Z,999.728
2017-09-11T14:00:48.308Z,999.786
2017-09-11T14:03:43.743Z,999.807
2017-09-11T14:06:39.580Z,999.892
2017-09-11T14:09:35.114Z,999.863
2017-09-11T14:12:30.601Z,999.851
2017-09-11T14:15:25.938Z,999.811
2017-09-11T14:18:21.368Z,999.856
2017-09-11T14:21:16.756Z,999.811
2017-09-11T14:24:12.281Z,999.749
2017-09-11T14:27:07.716Z,999.771
2017-09-11T14:30:03.179Z,999.791
2017-09-11T14:32:58.534Z,999.812
2017-09-11T14:35:53.939Z,999.797
2017-09-11T14:38:49.387Z,999.780
2017-09-11T14:41:44.685Z,999.728
2017-09-11T14:44:40.189Z,999.729
2017-09-11T14:47:35.680Z,999.724
2017-09-11T14:50:31.253Z,999.708
2017-09-11T14:53:26.646Z,999.769
2017-09-11T14:56:22.023Z,999.770
2017-09-11T14:59:17.409Z,999.740
2017-09-11T15:02:12.840Z,999.788
2017-09-11T15:05:08.281Z,999.799
2017-09-11T15:08:03.712Z,999.855
2017-09-11T15:10:59.084Z,999.857
2017-09-11T15:13:54.485Z,999.898
2017-09-11T15:16:49.891Z,999.898
2017-09-11T15:19:45.235Z,999.922
2017-09-11T15:22:40.665Z,999.892
2017-09-11T15:25:36.202Z,999.878
2017-09-11T15:28:31.503Z,999.919
2017-09-11T15:31:26.847Z,999.970
2017-09-11T15:34:22.284Z,999.966
2017-09-11T15:37:17.645Z,999.973
2017-09-11T15:40:13.236Z,1000.086
2017-09-11T15:43:08.596Z,1000.143
2017-09-11T15:46:04.148Z,1000.088
2017-09-11T15:48:59.533Z,1000.065
2017-09-11T15:51:55.016Z,999.993
2017-09-11T15:54:50.365Z,1000.059
2017-09-11T15:57:45.874Z,1000.065
2017-09-11T16:00:41.344Z,1000.058
2017-09-11T16:03:36.651Z,1000.076
2017-09-11T16:06:31.977Z,1000.103
2017-09-11T16:09:27.445Z,1000.105
2017-09-11T16:12:22.814Z,1000.088
2017-09-11T16:15:18.306Z,1000.051
2017-09-11T16:18:13.763Z,1000.081
2017-09-11T16:21:09.122Z,1000.022
2017-09-11T16:24:04.438Z,1000.006
2017-09-11T16:26:59.840Z,999.926
2017-09-11T16:29:55.200Z,999.917
2017-09-11T16:32:50.622Z,999.838
2017-09-11T16:35:46.025Z,999.831
2017-09-11T16:38:41.407Z,999.848
2017-09-11T16:41:36.639Z,999.945
2017-09-11T16:44:31.993Z,999.983
2017-09-11T16:47:27.435Z,999.928
2017-09-11T16:50:22.784Z,999.902
2017-09-11T16:53:18.122Z,999.911
2017-09-11T16:56:13.508Z,999.911
2017-09-11T16:59:08.955Z,999.847
2017-09-11T17:02:04.332Z,999.773
2017-09-11T17:04:59.681Z,999.786
2017-09-11T17:07:55.026Z,999.749
2017-09-11T17:10:50.311Z,999.730
2017-09-11T17:13:45.693Z,999.746
2017-09-11T17:16:40.987Z,999.761
2017-09-11T17:19:36.334Z,999.816
2017-09-11T17:22:31.685Z,999.839
2017-09-11T17:25:27.055Z,999.860
2017-09-11T17:28:22.433Z,999.827
2017-09-11T17:31:17.726Z,999.860
2017-09-11T17:34:13.075Z,999.914
2017-09-11T17:37:08.346Z,999.895
2017-09-11T17:40:03.674Z,999.845
2017-09-11T17:42:59.011Z,999.863
2017-09-11T17:45:54.327Z,999.893
2017-09-11T17:48:49.693Z,999.920
2017-09-11T17:51:45.057Z,999.841
2017-09-11T17:54:40.447Z,999.903
2017-09-11T17:57:35.834Z,999.944
2017-09-11T18:00:31.283Z,1000.027
2017-09-11T18:03:26.576Z,1000.083
2017-09-11T18:06:21.872Z,1000.045
2017-09-11T18:09:17.274Z,999.992
2017-09-11T18:12:12.570Z,999.932
2017-09-11T18:15:07.963Z,999.981
2017-09-11T18:18:03.282Z,999.995
2017-09-11T18:20:58.586Z,1000.057
2017-09-11T18:23:53.902Z,1000.114
2017-09-11T18:26:49.125Z,1000.240
2017-09-11T18:29:44.373Z,1000.308
2017-09-11T18:32:39.646Z,1000.328
2017-09-11T18:35:34.916Z,1000.337
2017-09-11T18:38:30.303Z,1000.363
2017-09-11T18:41:25.564Z,1000.359
2017-09-11T18:44:20.933Z,1000.409
2017-09-11T18:47:16.143Z,1000.414
2017-09-11T18:50:11.467Z,1000.435
2017-09-11T18:53:06.726Z,1000.437
2017-09-11T18:56:02.266Z,1000.484
2017-09-11T18:58:57.562Z,1000.521
2017-09-11T19:01:53.410Z,1000.509
2017-09-11T19:04:48.690Z,1000.541
2017-09-11T19:07:44.082Z,1000.503
2017-09-11T19:10:39.431Z,1000.532
2017-09-11T19:13:34.842Z,1000.518
2017-09-11T19:16:30.067Z,1000.539
2017-09-11T19:22:20.791Z,1000.491
2017-09-11T19:25:16.103Z,1000.476
2017-09-11T19:28:11.448Z,1000.479
2017-09-11T19:31:06.720Z,1000.471
2017-09-11T19:34:01.995Z,1000.478
2017-09-11T19:36:57.264Z,1000.421
2017-09-11T19:39:52.478Z,1000.411
2017-09-11T19:42:47.687Z,1000.411
2017-09-11T19:45:42.931Z,1000.359
2017-09-11T19:48:38.099Z,1000.434
2017-09-11T19:51:33.290Z,1000.493
2017-09-11T19:54:28.538Z,1000.504
2017-09-11T19:57:24.087Z,1000.522
2017-09-11T20:00:19.334Z,1000.578
2017-09-11T20:03:14.566Z,1000.625
2017-09-11T20:06:09.846Z,1000.649
2017-09-11T20:09:05.069Z,1000.718
2017-09-11T20:12:00.302Z,1000.727
2017-09-11T20:17:51.154Z,1000.780
2017-09-11T20:20:46.534Z,1000.807
2017-09-11T20:23:41.625Z,1000.796
2017-09-11T20:26:36.826Z,1000.859
2017-09-11T20:29:32.156Z,1000.940
2017-09-11T20:32:27.417Z,1001.008
2017-09-11T20:35:22.694Z,1001.078
2017-09-11T20:38:17.901Z,1001.136
2017-09-11T20:41:13.072Z,1001.160
2017-09-11T20:44:08.345Z,1001.190
2017-09-11T20:47:03.619Z,1001.226
2017-09-11T20:49:58.832Z,1001.228
2017-09-11T20:52:54.103Z,1001.267
2017-09-11T20:55:49.274Z,1001.331
2017-09-11T20:58:44.506Z,1001.403
2017-09-11T21:01:39.883Z,1001.416
2017-09-11T21:04:35.137Z,1001.414
2017-09-11T21:10:25.751Z,1001.536
2017-09-11T21:13:20.927Z,1001.576
2017-09-11T21:16:16.173Z,1001.545
2017-09-11T21:19:11.420Z,1001.615
2017-09-11T21:22:06.690Z,1001.621
2017-09-11T21:27:57.276Z,1001.618
2017-09-11T21:30:52.501Z,1001.594
2017-09-11T21:33:47.730Z,1001.588
2017-09-11T21:36:42.966Z,1001.576
2017-09-11T21:39:38.173Z,1001.636
2017-09-11T21:42:33.455Z,1001.661
2017-09-11T21:45:28.740Z,1001.633
2017-09-11T21:48:23.997Z,1001.643
2017-09-11T21:51:19.249Z,1001.626
2017-09-11T21:54:14.482Z,1001.672
2017-09-11T21:57:09.857Z,1001.701
2017-09-11T22:00:05.007Z,1001.697
2017-09-11T22:03:00.194Z,1001.666
2017-09-11T22:08:50.584Z,1001.717
2017-09-11T22:11:45.914Z,1001.722
2017-09-11T22:14:41.133Z,1001.759
2017-09-11T22:17:36.362Z,1001.797
2017-09-11T22:20:31.573Z,1001.799
2017-09-11T22:23:26.818Z,1001.767
2017-09-11T22:26:21.926Z,1001.772
2017-09-11T22:29:17.067Z,1001.787
2017-09-11T22:32:12.254Z,1001.795
2017-09-11T22:35:07.487Z,1001.822
2017-09-11T22:38:02.653Z,1001.860
2017-09-11T22:40:57.801Z,1001.860
2017-09-11T22:43:52.927Z,1001.816
2017-09-11T22:46:48.110Z,1001.830
2017-09-11T22:49:43.230Z,1001.846
2017-09-11T22:52:38.314Z,1001.904
2017-09-11T22:55:33.379Z,1001.875
2017-09-11T22:58:28.638Z,1001.928
2017-09-11T23:01:23.740Z,1001.910
2017-09-11T23:04:18.837Z,1001.939
2017-09-11T23:07:13.943Z,1001.969
2017-09-11T23:10:09.003Z,1002.010
2017-09-11T23:13:04.104Z,1002.010
2017-09-11T23:15:59.160Z,1002.010
2017-09-11T23:18:54.205Z,1002.058
2017-09-11T23:21:49.308Z,1002.100
2017-09-11T23:24:44.438Z,1002.062
2017-09-11T23:27:39.548Z,1002.074
2017-09-11T23:30:34.654Z,1002.121
2017-09-11T23:33:29.738Z,1002.120
2017-09-11T23:36:24.884Z,1002.157
2017-09-11T23:39:19.988Z,1002.192
2017-09-11T23:42:15.101Z,1002.196
2017-09-11T23:45:10.174Z,1002.226
2017-09-11T23:48:05.314Z,1002.188
2017-09-11T23:51:00.485Z,1002.188
2017-09-11T23:56:50.594Z,1002.163
2017-09-11T23:59:45.735Z,1002.167
